sensor_id;sensor_type;location;lat;lon;timestamp;pressure;altitude;pressure_sealevel;temperature;humidity
9822;BME280;4950;46.042;14.472;2024-01-07T00:01:46;96384.56;;;7.67;94.22
9822;BME280;4950;46.042;14.472;2024-01-07T00:04:16;96388.94;;;7.73;93.83
9822;BME280;4950;46.042;14.472;2024-01-07T00:06:42;96390.56;;;7.81;93.74
9822;BME280;4950;46.042;14.472;2024-01-07T00:09:10;96391.75;;;7.78;93.47
9822;BME280;4950;46.042;14.472;2024-01-07T00:11:37;96391.56;;;7.80;93.22
9822;BME280;4950;46.042;14.472;2024-01-07T00:14:04;96388.56;;;7.76;93.67
9822;BME280;4950;46.042;14.472;2024-01-07T00:16:31;96397.91;;;7.77;93.59
9822;BME280;4950;46.042;14.472;2024-01-07T00:18:57;96395.53;;;7.76;92.98
9822;BME280;4950;46.042;14.472;2024-01-07T00:21:25;96405.38;;;7.59;92.37
9822;BME280;4950;46.042;14.472;2024-01-07T00:23:52;96394.09;;;7.60;93.24
9822;BME280;4950;46.042;14.472;2024-01-07T00:26:18;96400.81;;;7.61;93.11
9822;BME280;4950;46.042;14.472;2024-01-07T00:28:45;96399.00;;;7.48;93.28
9822;BME280;4950;46.042;14.472;2024-01-07T00:31:12;96401.34;;;7.43;93.08
9822;BME280;4950;46.042;14.472;2024-01-07T00:33:39;96405.13;;;7.47;93.69
9822;BME280;4950;46.042;14.472;2024-01-07T00:36:05;96392.84;;;7.56;93.63
9822;BME280;4950;46.042;14.472;2024-01-07T00:38:34;96401.00;;;7.59;93.96
9822;BME280;4950;46.042;14.472;2024-01-07T00:41:00;96396.31;;;7.69;93.54
9822;BME280;4950;46.042;14.472;2024-01-07T00:43:27;96396.69;;;7.73;93.00
9822;BME280;4950;46.042;14.472;2024-01-07T00:45:53;96394.09;;;7.66;93.49
9822;BME280;4950;46.042;14.472;2024-01-07T00:48:20;96396.84;;;7.58;93.24
9822;BME280;4950;46.042;14.472;2024-01-07T00:50:47;96396.59;;;7.46;93.02
9822;BME280;4950;46.042;14.472;2024-01-07T00:53:13;96401.41;;;7.56;93.12
9822;BME280;4950;46.042;14.472;2024-01-07T00:55:42;96396.66;;;7.60;92.89
9822;BME280;4950;46.042;14.472;2024-01-07T00:58:08;96405.75;;;7.49;92.87
9822;BME280;4950;46.042;14.472;2024-01-07T01:00:35;96405.56;;;7.57;93.10
9822;BME280;4950;46.042;14.472;2024-01-07T01:03:02;96405.56;;;7.57;92.81
9822;BME280;4950;46.042;14.472;2024-01-07T01:05:28;96408.34;;;7.56;93.29
9822;BME280;4950;46.042;14.472;2024-01-07T01:07:55;96412.34;;;7.58;94.04
9822;BME280;4950;46.042;14.472;2024-01-07T01:10:22;96408.75;;;7.59;93.39
9822;BME280;4950;46.042;14.472;2024-01-07T01:12:50;96418.91;;;7.61;94.01
9822;BME280;4950;46.042;14.472;2024-01-07T01:15:19;96415.97;;;7.70;93.11
9822;BME280;4950;46.042;14.472;2024-01-07T01:17:45;96414.50;;;7.55;92.92
9822;BME280;4950;46.042;14.472;2024-01-07T01:20:12;96419.84;;;7.53;93.45
9822;BME280;4950;46.042;14.472;2024-01-07T01:22:39;96413.72;;;7.54;93.10
9822;BME280;4950;46.042;14.472;2024-01-07T01:25:06;96425.84;;;7.60;92.30
9822;BME280;4950;46.042;14.472;2024-01-07T01:27:33;96420.28;;;7.57;92.51
9822;BME280;4950;46.042;14.472;2024-01-07T01:30:01;96409.75;;;7.58;93.24
9822;BME280;4950;46.042;14.472;2024-01-07T01:32:28;96412.53;;;7.63;94.00
9822;BME280;4950;46.042;14.472;2024-01-07T01:34:54;96416.72;;;7.58;93.99
9822;BME280;4950;46.042;14.472;2024-01-07T01:37:21;96413.72;;;7.54;93.68
9822;BME280;4950;46.042;14.472;2024-01-07T01:39:47;96413.31;;;7.57;94.55
9822;BME280;4950;46.042;14.472;2024-01-07T01:42:14;96410.97;;;7.62;93.60
9822;BME280;4950;46.042;14.472;2024-01-07T01:44:41;96417.72;;;7.63;93.08
9822;BME280;4950;46.042;14.472;2024-01-07T01:47:10;96409.38;;;7.61;93.40
9822;BME280;4950;46.042;14.472;2024-01-07T01:49:36;96407.00;;;7.60;94.27
9822;BME280;4950;46.042;14.472;2024-01-07T01:52:04;96404.00;;;7.56;94.25
9822;BME280;4950;46.042;14.472;2024-01-07T01:54:31;96410.91;;;7.56;94.59
9822;BME280;4950;46.042;14.472;2024-01-07T01:56:58;96415.34;;;7.62;94.24
9822;BME280;4950;46.042;14.472;2024-01-07T01:59:25;96408.75;;;7.59;93.85
9822;BME280;4950;46.042;14.472;2024-01-07T02:01:52;96414.44;;;7.41;92.27
9822;BME280;4950;46.042;14.472;2024-01-07T02:04:20;96408.13;;;7.50;93.49
9822;BME280;4950;46.042;14.472;2024-01-07T02:06:47;96408.69;;;7.46;93.36
9822;BME280;4950;46.042;14.472;2024-01-07T02:09:14;96413.38;;;7.29;93.50
9822;BME280;4950;46.042;14.472;2024-01-07T02:11:41;96405.91;;;7.12;94.86
9822;BME280;4950;46.042;14.472;2024-01-07T02:14:08;96405.50;;;6.81;96.69
9822;BME280;4950;46.042;14.472;2024-01-07T02:16:34;96403.53;;;6.55;98.86
9822;BME280;4950;46.042;14.472;2024-01-07T02:19:01;96403.13;;;6.58;99.66
9822;BME280;4950;46.042;14.472;2024-01-07T02:21:29;96398.53;;;6.75;99.44
9822;BME280;4950;46.042;14.472;2024-01-07T02:23:55;96398.22;;;6.91;98.44
9822;BME280;4950;46.042;14.472;2024-01-07T02:26:24;96401.16;;;7.09;98.47
9822;BME280;4950;46.042;14.472;2024-01-07T02:28:50;96398.25;;;7.26;96.99
9822;BME280;4950;46.042;14.472;2024-01-07T02:31:17;96402.88;;;7.02;96.11
9822;BME280;4950;46.042;14.472;2024-01-07T02:33:44;96406.19;;;6.89;97.24
9822;BME280;4950;46.042;14.472;2024-01-07T02:36:10;96398.56;;;6.81;98.06
9822;BME280;4950;46.042;14.472;2024-01-07T02:38:37;96402.59;;;6.90;97.95
9822;BME280;4950;46.042;14.472;2024-01-07T02:41:04;96403.06;;;7.01;98.23
9822;BME280;4950;46.042;14.472;2024-01-07T02:43:32;96398.31;;;7.04;97.65
9822;BME280;4950;46.042;14.472;2024-01-07T02:45:59;96400.13;;;7.04;98.31
9822;BME280;4950;46.042;14.472;2024-01-07T02:48:25;96396.97;;;7.08;98.20
9822;BME280;4950;46.042;14.472;2024-01-07T02:50:52;96393.06;;;7.19;97.67
9822;BME280;4950;46.042;14.472;2024-01-07T02:53:18;96394.44;;;7.15;96.96
9822;BME280;4950;46.042;14.472;2024-01-07T02:55:45;96396.63;;;7.18;97.08
9822;BME280;4950;46.042;14.472;2024-01-07T02:58:12;96388.09;;;7.18;96.80
9822;BME280;4950;46.042;14.472;2024-01-07T03:00:40;96390.69;;;7.18;96.16
9822;BME280;4950;46.042;14.472;2024-01-07T03:03:07;96388.69;;;7.20;96.27
9822;BME280;4950;46.042;14.472;2024-01-07T03:05:33;96394.69;;;6.92;96.17
9822;BME280;4950;46.042;14.472;2024-01-07T03:08:00;96393.06;;;6.91;97.55
9822;BME280;4950;46.042;14.472;2024-01-07T03:10:27;96399.44;;;6.95;97.60
9822;BME280;4950;46.042;14.472;2024-01-07T03:12:53;96395.63;;;6.84;97.57
9822;BME280;4950;46.042;14.472;2024-01-07T03:15:20;96394.22;;;6.82;97.37
9822;BME280;4950;46.042;14.472;2024-01-07T03:17:48;96398.47;;;6.68;98.26
9822;BME280;4950;46.042;14.472;2024-01-07T03:20:15;96391.91;;;6.65;98.26
9822;BME280;4950;46.042;14.472;2024-01-07T03:22:41;96394.75;;;6.49;99.25
9822;BME280;4950;46.042;14.472;2024-01-07T03:25:08;96396.44;;;6.63;99.30
9822;BME280;4950;46.042;14.472;2024-01-07T03:27:35;96390.94;;;6.66;98.91
9822;BME280;4950;46.042;14.472;2024-01-07T03:30:02;96391.44;;;6.83;99.14
9822;BME280;4950;46.042;14.472;2024-01-07T03:32:29;96393.91;;;6.91;98.14
9822;BME280;4950;46.042;14.472;2024-01-07T03:34:57;96397.00;;;6.87;97.98
9822;BME280;4950;46.042;14.472;2024-01-07T03:37:23;96403.34;;;6.84;98.35
9822;BME280;4950;46.042;14.472;2024-01-07T03:39:50;96405.59;;;6.94;97.94
9822;BME280;4950;46.042;14.472;2024-01-07T03:42:17;96398.66;;;6.95;98.39
9822;BME280;4950;46.042;14.472;2024-01-07T03:44:44;96402.13;;;6.80;98.03
9822;BME280;4950;46.042;14.472;2024-01-07T03:47:11;96398.59;;;6.60;98.49
9822;BME280;4950;46.042;14.472;2024-01-07T03:49:38;96397.38;;;6.56;99.81
9822;BME280;4950;46.042;14.472;2024-01-07T03:52:06;96397.97;;;6.58;100.00
9822;BME280;4950;46.042;14.472;2024-01-07T03:54:33;96402.53;;;6.56;100.00
9822;BME280;4950;46.042;14.472;2024-01-07T03:57:00;96405.97;;;6.41;100.00
9822;BME280;4950;46.042;14.472;2024-01-07T03:59:26;96408.84;;;6.31;100.00
9822;BME280;4950;46.042;14.472;2024-01-07T04:01:54;96408.38;;;6.21;100.00
9822;BME280;4950;46.042;14.472;2024-01-07T04:04:20;96410.22;;;6.27;100.00
9822;BME280;4950;46.042;14.472;2024-01-07T04:06:47;96407.63;;;6.27;100.00
9822;BME280;4950;46.042;14.472;2024-01-07T04:09:15;96407.69;;;6.34;100.00
9822;BME280;4950;46.042;14.472;2024-01-07T04:11:42;96410.81;;;6.51;100.00
9822;BME280;4950;46.042;14.472;2024-01-07T04:14:09;96407.06;;;6.53;100.00
9822;BME280;4950;46.042;14.472;2024-01-07T04:16:36;96404.97;;;6.64;100.00
9822;BME280;4950;46.042;14.472;2024-01-07T04:19:02;96411.72;;;6.65;100.00
9822;BME280;4950;46.042;14.472;2024-01-07T04:21:29;96408.41;;;6.71;100.00
9822;BME280;4950;46.042;14.472;2024-01-07T04:23:56;96413.56;;;6.71;98.99
9822;BME280;4950;46.042;14.472;2024-01-07T04:26:24;96415.84;;;6.59;99.37
9822;BME280;4950;46.042;14.472;2024-01-07T04:28:50;96407.00;;;6.68;99.91
9822;BME280;4950;46.042;14.472;2024-01-07T04:31:17;96419.91;;;6.68;99.31
9822;BME280;4950;46.042;14.472;2024-01-07T04:33:44;96416.88;;;6.65;99.38
9822;BME280;4950;46.042;14.472;2024-01-07T04:36:10;96415.78;;;6.74;99.75
9822;BME280;4950;46.042;14.472;2024-01-07T04:38:37;96422.78;;;6.59;99.16
9822;BME280;4950;46.042;14.472;2024-01-07T04:41:04;96425.84;;;6.69;99.21
9822;BME280;4950;46.042;14.472;2024-01-07T04:43:34;96416.28;;;6.63;98.36
9822;BME280;4950;46.042;14.472;2024-01-07T04:46:00;96425.88;;;6.76;98.29
9822;BME280;4950;46.042;14.472;2024-01-07T04:48:27;96428.06;;;6.72;98.38
9822;BME280;4950;46.042;14.472;2024-01-07T04:50:53;96427.94;;;6.80;98.61
9822;BME280;4950;46.042;14.472;2024-01-07T04:53:20;96426.59;;;6.91;97.56
9822;BME280;4950;46.042;14.472;2024-01-07T04:55:47;96430.53;;;6.87;97.61
9822;BME280;4950;46.042;14.472;2024-01-07T04:58:13;96433.38;;;6.92;97.54
9822;BME280;4950;46.042;14.472;2024-01-07T05:00:41;96425.03;;;6.90;97.27
9822;BME280;4950;46.042;14.472;2024-01-07T05:03:08;96426.50;;;6.99;96.83
9822;BME280;4950;46.042;14.472;2024-01-07T05:05:35;96425.06;;;6.97;97.42
9822;BME280;4950;46.042;14.472;2024-01-07T05:08:04;96426.84;;;6.96;96.80
9822;BME280;4950;46.042;14.472;2024-01-07T05:10:30;96426.84;;;6.96;97.16
9822;BME280;4950;46.042;14.472;2024-01-07T05:12:57;96426.81;;;6.89;97.28
9822;BME280;4950;46.042;14.472;2024-01-07T05:15:24;96425.31;;;7.02;97.20
9822;BME280;4950;46.042;14.472;2024-01-07T05:17:52;96430.69;;;7.07;96.62
9822;BME280;4950;46.042;14.472;2024-01-07T05:20:18;96432.91;;;7.10;96.00
9822;BME280;4950;46.042;14.472;2024-01-07T05:22:45;96423.94;;;7.06;96.21
9822;BME280;4950;46.042;14.472;2024-01-07T05:25:12;96430.34;;;7.17;96.49
9822;BME280;4950;46.042;14.472;2024-01-07T05:27:38;96428.78;;;7.16;95.43
9822;BME280;4950;46.042;14.472;2024-01-07T05:30:07;96438.09;;;7.17;95.44
9822;BME280;4950;46.042;14.472;2024-01-07T05:32:34;96441.88;;;7.14;96.02
9822;BME280;4950;46.042;14.472;2024-01-07T05:35:02;96436.19;;;6.97;94.86
9822;BME280;4950;46.042;14.472;2024-01-07T05:37:29;96430.47;;;7.02;96.26
9822;BME280;4950;46.042;14.472;2024-01-07T05:39:55;96433.97;;;6.94;95.79
9822;BME280;4950;46.042;14.472;2024-01-07T05:42:22;96438.97;;;6.96;96.55
9822;BME280;4950;46.042;14.472;2024-01-07T05:44:49;96439.56;;;6.98;96.63
9822;BME280;4950;46.042;14.472;2024-01-07T05:47:15;96440.97;;;7.00;96.94
9822;BME280;4950;46.042;14.472;2024-01-07T05:49:43;96438.38;;;7.00;96.38
9822;BME280;4950;46.042;14.472;2024-01-07T05:52:11;96442.09;;;6.91;96.92
9822;BME280;4950;46.042;14.472;2024-01-07T05:54:38;96435.88;;;6.85;96.99
9822;BME280;4950;46.042;14.472;2024-01-07T05:57:04;96443.25;;;6.88;97.32
9822;BME280;4950;46.042;14.472;2024-01-07T05:59:32;96446.41;;;6.84;96.81
9822;BME280;4950;46.042;14.472;2024-01-07T06:01:58;96445.28;;;6.71;97.33
9822;BME280;4950;46.042;14.472;2024-01-07T06:04:25;96444.47;;;6.64;97.94
9822;BME280;4950;46.042;14.472;2024-01-07T06:06:52;96438.47;;;6.64;97.34
9822;BME280;4950;46.042;14.472;2024-01-07T06:09:20;96450.16;;;6.60;97.43
9822;BME280;4950;46.042;14.472;2024-01-07T06:11:47;96446.78;;;6.59;98.27
9822;BME280;4950;46.042;14.472;2024-01-07T06:14:13;96450.06;;;6.68;98.28
9822;BME280;4950;46.042;14.472;2024-01-07T06:16:40;96446.00;;;6.59;97.44
9822;BME280;4950;46.042;14.472;2024-01-07T06:19:07;96465.09;;;6.64;98.00
9822;BME280;4950;46.042;14.472;2024-01-07T06:21:34;96452.56;;;6.61;98.44
9822;BME280;4950;46.042;14.472;2024-01-07T06:24:01;96448.63;;;6.65;98.67
9822;BME280;4950;46.042;14.472;2024-01-07T06:26:29;96458.31;;;6.63;98.27
9822;BME280;4950;46.042;14.472;2024-01-07T06:28:55;96449.63;;;6.64;97.88
9822;BME280;4950;46.042;14.472;2024-01-07T06:31:22;96459.41;;;6.54;97.63
9822;BME280;4950;46.042;14.472;2024-01-07T06:33:48;96459.81;;;6.51;97.76
9822;BME280;4950;46.042;14.472;2024-01-07T06:36:15;96464.41;;;6.56;98.72
9822;BME280;4950;46.042;14.472;2024-01-07T06:38:42;96467.97;;;6.55;97.75
9822;BME280;4950;46.042;14.472;2024-01-07T06:41:09;96465.38;;;6.55;97.28
9822;BME280;4950;46.042;14.472;2024-01-07T06:43:37;96473.78;;;6.63;97.20
9822;BME280;4950;46.042;14.472;2024-01-07T06:46:04;96473.19;;;6.61;97.20
9822;BME280;4950;46.042;14.472;2024-01-07T06:48:31;96480.84;;;6.55;97.45
9822;BME280;4950;46.042;14.472;2024-01-07T06:50:58;96483.19;;;6.49;97.16
9822;BME280;4950;46.042;14.472;2024-01-07T06:53:24;96485.44;;;6.59;97.74
9822;BME280;4950;46.042;14.472;2024-01-07T06:55:51;96487.56;;;6.70;96.93
9822;BME280;4950;46.042;14.472;2024-01-07T06:58:18;96493.16;;;6.74;96.05
9822;BME280;4950;46.042;14.472;2024-01-07T07:00:46;96489.75;;;6.73;96.64
9822;BME280;4950;46.042;14.472;2024-01-07T07:03:13;96491.22;;;6.83;95.93
9822;BME280;4950;46.042;14.472;2024-01-07T07:05:40;96497.06;;;6.91;95.08
9822;BME280;4950;46.042;14.472;2024-01-07T07:08:06;96496.69;;;6.95;94.94
9822;BME280;4950;46.042;14.472;2024-01-07T07:10:33;96505.00;;;6.90;95.38
9822;BME280;4950;46.042;14.472;2024-01-07T07:13:00;96506.97;;;6.88;95.00
9822;BME280;4950;46.042;14.472;2024-01-07T07:15:26;96506.56;;;6.91;95.05
9822;BME280;4950;46.042;14.472;2024-01-07T07:17:55;96508.97;;;6.92;94.97
9822;BME280;4950;46.042;14.472;2024-01-07T07:20:22;96511.38;;;6.94;94.74
9822;BME280;4950;46.042;14.472;2024-01-07T07:22:49;96517.88;;;6.90;95.43
9822;BME280;4950;46.042;14.472;2024-01-07T07:25:16;96519.47;;;6.91;94.68
9822;BME280;4950;46.042;14.472;2024-01-07T07:27:42;96527.78;;;6.86;95.20
9822;BME280;4950;46.042;14.472;2024-01-07T07:30:09;96524.00;;;6.89;95.25
9822;BME280;4950;46.042;14.472;2024-01-07T07:32:39;96528.03;;;6.91;95.41
9822;BME280;4950;46.042;14.472;2024-01-07T07:35:07;96527.19;;;6.91;95.19
9822;BME280;4950;46.042;14.472;2024-01-07T07:37:34;96523.34;;;7.02;94.93
9822;BME280;4950;46.042;14.472;2024-01-07T07:40:00;96529.69;;;6.99;94.87
9822;BME280;4950;46.042;14.472;2024-01-07T07:42:28;96527.47;;;6.96;95.21
9822;BME280;4950;46.042;14.472;2024-01-07T07:44:54;96530.22;;;6.95;95.19
9822;BME280;4950;46.042;14.472;2024-01-07T07:47:21;96526.09;;;7.00;94.79
9822;BME280;4950;46.042;14.472;2024-01-07T07:49:47;96527.09;;;6.99;94.99
9822;BME280;4950;46.042;14.472;2024-01-07T07:52:17;96525.66;;;6.97;95.02
9822;BME280;4950;46.042;14.472;2024-01-07T07:54:47;96531.00;;;6.95;94.71
9822;BME280;4950;46.042;14.472;2024-01-07T07:57:18;96531.00;;;6.95;94.85
9822;BME280;4950;46.042;14.472;2024-01-07T07:59:45;96532.38;;;6.91;95.30
9822;BME280;4950;46.042;14.472;2024-01-07T08:02:12;96533.38;;;6.90;94.81
9822;BME280;4950;46.042;14.472;2024-01-07T08:04:39;96537.78;;;6.96;94.68
9822;BME280;4950;46.042;14.472;2024-01-07T08:07:06;96533.22;;;6.98;94.51
9822;BME280;4950;46.042;14.472;2024-01-07T08:09:34;96539.19;;;6.99;94.11
9822;BME280;4950;46.042;14.472;2024-01-07T08:12:02;96544.56;;;6.97;94.53
9822;BME280;4950;46.042;14.472;2024-01-07T08:14:29;96542.81;;;6.83;94.63
9822;BME280;4950;46.042;14.472;2024-01-07T08:16:56;96542.38;;;6.79;95.41
9822;BME280;4950;46.042;14.472;2024-01-07T08:19:23;96545.81;;;6.86;95.40
9822;BME280;4950;46.042;14.472;2024-01-07T08:21:49;96545.81;;;6.86;94.75
9822;BME280;4950;46.042;14.472;2024-01-07T08:24:16;96550.41;;;6.91;94.18
9822;BME280;4950;46.042;14.472;2024-01-07T08:26:44;96547.44;;;6.87;94.55
9822;BME280;4950;46.042;14.472;2024-01-07T08:29:11;96539.44;;;6.82;94.64
9822;BME280;4950;46.042;14.472;2024-01-07T08:31:39;96547.97;;;6.83;95.43
9822;BME280;4950;46.042;14.472;2024-01-07T08:34:07;96543.97;;;6.80;94.85
9822;BME280;4950;46.042;14.472;2024-01-07T08:36:34;96549.13;;;6.80;94.57
9822;BME280;4950;46.042;14.472;2024-01-07T08:39:00;96553.50;;;6.80;95.02
9822;BME280;4950;46.042;14.472;2024-01-07T08:41:27;96553.97;;;6.68;95.23
9822;BME280;4950;46.042;14.472;2024-01-07T08:43:55;96554.94;;;6.67;95.17
9822;BME280;4950;46.042;14.472;2024-01-07T08:46:22;96564.91;;;6.70;95.37
9822;BME280;4950;46.042;14.472;2024-01-07T08:48:48;96562.34;;;6.70;95.09
9822;BME280;4950;46.042;14.472;2024-01-07T08:51:16;96565.97;;;6.76;94.57
9822;BME280;4950;46.042;14.472;2024-01-07T08:53:42;96566.09;;;6.68;94.53
9822;BME280;4950;46.042;14.472;2024-01-07T08:56:09;96559.88;;;6.62;94.53
9822;BME280;4950;46.042;14.472;2024-01-07T08:58:36;96568.56;;;6.61;94.66
9822;BME280;4950;46.042;14.472;2024-01-07T09:01:04;96574.59;;;6.68;94.72
9822;BME280;4950;46.042;14.472;2024-01-07T09:03:31;96574.16;;;6.65;95.00
9822;BME280;4950;46.042;14.472;2024-01-07T09:05:57;96580.13;;;6.65;94.79
9822;BME280;4950;46.042;14.472;2024-01-07T09:08:24;96595.53;;;6.59;94.80
9822;BME280;4950;46.042;14.472;2024-01-07T09:10:51;96588.88;;;6.49;96.12
9822;BME280;4950;46.042;14.472;2024-01-07T09:13:18;96590.66;;;6.49;95.30
9822;BME280;4950;46.042;14.472;2024-01-07T09:15:44;96596.94;;;6.46;95.34
9822;BME280;4950;46.042;14.472;2024-01-07T09:18:13;96599.00;;;6.51;95.58
9822;BME280;4950;46.042;14.472;2024-01-07T09:20:39;96596.31;;;6.59;95.71
9822;BME280;4950;46.042;14.472;2024-01-07T09:23:06;96592.38;;;6.63;95.89
9822;BME280;4950;46.042;14.472;2024-01-07T09:25:32;96596.22;;;6.67;95.81
9822;BME280;4950;46.042;14.472;2024-01-07T09:27:59;96596.47;;;6.72;95.92
9822;BME280;4950;46.042;14.472;2024-01-07T09:30:26;96599.50;;;6.76;95.74
9822;BME280;4950;46.042;14.472;2024-01-07T09:32:52;96601.25;;;6.76;95.03
9822;BME280;4950;46.042;14.472;2024-01-07T09:35:20;96594.25;;;6.69;94.73
9822;BME280;4950;46.042;14.472;2024-01-07T09:37:48;96594.19;;;6.63;94.58
9822;BME280;4950;46.042;14.472;2024-01-07T09:40:17;96607.13;;;6.69;95.02
9822;BME280;4950;46.042;14.472;2024-01-07T09:42:44;96598.97;;;6.66;94.75
9822;BME280;4950;46.042;14.472;2024-01-07T09:45:12;96608.53;;;6.50;94.40
9822;BME280;4950;46.042;14.472;2024-01-07T09:47:40;96605.94;;;6.36;95.45
9822;BME280;4950;46.042;14.472;2024-01-07T09:50:09;96608.25;;;6.30;96.33
9822;BME280;4950;46.042;14.472;2024-01-07T09:52:38;96596.34;;;6.29;96.71
9822;BME280;4950;46.042;14.472;2024-01-07T09:55:09;96601.06;;;6.41;96.78
9822;BME280;4950;46.042;14.472;2024-01-07T09:57:37;96601.13;;;6.32;95.53
9822;BME280;4950;46.042;14.472;2024-01-07T10:00:07;96599.34;;;6.48;96.13
9822;BME280;4950;46.042;14.472;2024-01-07T10:02:34;96600.69;;;6.44;95.62
9822;BME280;4950;46.042;14.472;2024-01-07T10:05:01;96600.53;;;6.45;96.34
9822;BME280;4950;46.042;14.472;2024-01-07T10:07:28;96599.09;;;6.43;96.44
9822;BME280;4950;46.042;14.472;2024-01-07T10:09:56;96603.72;;;6.32;97.02
9822;BME280;4950;46.042;14.472;2024-01-07T10:12:23;96594.13;;;6.41;97.31
9822;BME280;4950;46.042;14.472;2024-01-07T10:14:51;96601.06;;;6.41;96.96
9822;BME280;4950;46.042;14.472;2024-01-07T10:17:17;96592.34;;;6.42;97.23
9822;BME280;4950;46.042;14.472;2024-01-07T10:19:45;96583.44;;;6.44;97.18
9822;BME280;4950;46.042;14.472;2024-01-07T10:22:13;96584.00;;;6.40;96.51
9822;BME280;4950;46.042;14.472;2024-01-07T10:24:41;96582.19;;;6.40;96.94
9822;BME280;4950;46.042;14.472;2024-01-07T10:27:10;96588.69;;;6.36;96.67
9822;BME280;4950;46.042;14.472;2024-01-07T10:29:37;96582.19;;;6.40;97.36
9822;BME280;4950;46.042;14.472;2024-01-07T10:32:05;96580.91;;;6.29;96.63
9822;BME280;4950;46.042;14.472;2024-01-07T10:34:33;96583.19;;;6.24;97.92
9822;BME280;4950;46.042;14.472;2024-01-07T10:37:01;96591.09;;;6.23;98.03
9822;BME280;4950;46.042;14.472;2024-01-07T10:39:28;96589.53;;;6.22;97.71
9822;BME280;4950;46.042;14.472;2024-01-07T10:41:56;96587.41;;;6.25;97.78
9822;BME280;4950;46.042;14.472;2024-01-07T10:44:26;96585.16;;;6.22;98.35
9822;BME280;4950;46.042;14.472;2024-01-07T10:46:54;96584.44;;;6.28;98.20
9822;BME280;4950;46.042;14.472;2024-01-07T10:49:23;96579.66;;;6.25;97.92
9822;BME280;4950;46.042;14.472;2024-01-07T10:52:05;96588.19;;;6.26;97.78
9822;BME280;4950;46.042;14.472;2024-01-07T10:54:33;96590.41;;;6.29;98.33
9822;BME280;4950;46.042;14.472;2024-01-07T10:57:07;96592.28;;;6.20;97.49
9822;BME280;4950;46.042;14.472;2024-01-07T10:59:37;96593.25;;;6.19;97.64
9822;BME280;4950;46.042;14.472;2024-01-07T11:02:07;96597.69;;;6.10;97.87
9822;BME280;4950;46.042;14.472;2024-01-07T11:04:42;96594.41;;;6.17;98.34
9822;BME280;4950;46.042;14.472;2024-01-07T11:07:19;96589.53;;;6.22;98.08
9822;BME280;4950;46.042;14.472;2024-01-07T11:09:59;96592.72;;;6.24;97.44
9822;BME280;4950;46.042;14.472;2024-01-07T11:12:30;96596.34;;;6.29;97.43
9822;BME280;4950;46.042;14.472;2024-01-07T11:14:59;96592.78;;;6.30;97.61
9822;BME280;4950;46.042;14.472;2024-01-07T11:17:40;96592.63;;;6.32;96.98
9822;BME280;4950;46.042;14.472;2024-01-07T11:20:13;96594.13;;;6.41;97.11
9822;BME280;4950;46.042;14.472;2024-01-07T11:22:40;96596.53;;;6.43;97.23
9822;BME280;4950;46.042;14.472;2024-01-07T11:25:30;96600.16;;;6.48;96.61
9822;BME280;4950;46.042;14.472;2024-01-07T11:27:57;96593.41;;;6.47;96.12
9822;BME280;4950;46.042;14.472;2024-01-07T11:30:26;96592.69;;;6.53;96.58
9822;BME280;4950;46.042;14.472;2024-01-07T11:32:56;96595.09;;;6.55;95.30
9822;BME280;4950;46.042;14.472;2024-01-07T11:35:53;96594.38;;;6.46;95.29
9822;BME280;4950;46.042;14.472;2024-01-07T11:38:21;96596.16;;;6.46;95.24
9822;BME280;4950;46.042;14.472;2024-01-07T11:40:49;96588.06;;;6.49;95.29
9822;BME280;4950;46.042;14.472;2024-01-07T11:43:16;96594.13;;;6.41;95.22
9822;BME280;4950;46.042;14.472;2024-01-07T11:45:44;96587.19;;;6.42;96.11
9822;BME280;4950;46.042;14.472;2024-01-07T11:48:11;96588.97;;;6.41;95.15
9822;BME280;4950;46.042;14.472;2024-01-07T11:50:37;96593.13;;;6.42;95.13
9822;BME280;4950;46.042;14.472;2024-01-07T11:53:04;96598.91;;;6.44;95.27
9822;BME280;4950;46.042;14.472;2024-01-07T11:55:32;96597.50;;;6.42;94.64
9822;BME280;4950;46.042;14.472;2024-01-07T11:58:01;96593.56;;;6.46;95.16
9822;BME280;4950;46.042;14.472;2024-01-07T12:00:31;96597.31;;;6.43;95.23
9822;BME280;4950;46.042;14.472;2024-01-07T12:02:59;96600.78;;;6.36;94.02
9822;BME280;4950;46.042;14.472;2024-01-07T12:05:26;96593.97;;;6.28;94.80
9822;BME280;4950;46.042;14.472;2024-01-07T12:07:52;96599.66;;;6.23;95.28
9822;BME280;4950;46.042;14.472;2024-01-07T12:10:19;96601.84;;;6.26;95.68
9822;BME280;4950;46.042;14.472;2024-01-07T12:12:46;96599.28;;;6.26;95.05
9822;BME280;4950;46.042;14.472;2024-01-07T12:15:13;96594.03;;;6.35;94.79
9822;BME280;4950;46.042;14.472;2024-01-07T12:17:40;96593.06;;;6.36;94.78
9822;BME280;4950;46.042;14.472;2024-01-07T12:20:10;96596.16;;;6.46;94.25
9822;BME280;4950;46.042;14.472;2024-01-07T12:22:37;96593.41;;;6.47;94.36
9822;BME280;4950;46.042;14.472;2024-01-07T12:25:06;96596.44;;;6.51;94.38
9822;BME280;4950;46.042;14.472;2024-01-07T12:27:33;96601.59;;;6.51;94.28
9822;BME280;4950;46.042;14.472;2024-01-07T12:30:04;96606.75;;;6.51;93.37
9822;BME280;4950;46.042;14.472;2024-01-07T12:32:31;96606.00;;;6.57;93.46
9822;BME280;4950;46.042;14.472;2024-01-07T12:34:58;96605.75;;;6.52;94.08
9822;BME280;4950;46.042;14.472;2024-01-07T12:37:27;96605.03;;;6.58;93.45
9822;BME280;4950;46.042;14.472;2024-01-07T12:39:54;96608.25;;;6.60;93.17
9822;BME280;4950;46.042;14.472;2024-01-07T12:42:21;96605.56;;;6.68;93.78
9822;BME280;4950;46.042;14.472;2024-01-07T12:44:48;96606.53;;;6.67;93.16
9822;BME280;4950;46.042;14.472;2024-01-07T12:47:15;96602.25;;;6.75;93.25
9822;BME280;4950;46.042;14.472;2024-01-07T12:49:42;96602.97;;;6.68;92.66
9822;BME280;4950;46.042;14.472;2024-01-07T12:52:09;96602.03;;;6.55;93.31
9822;BME280;4950;46.042;14.472;2024-01-07T12:54:38;96604.94;;;6.51;94.22
9822;BME280;4950;46.042;14.472;2024-01-07T12:57:05;96603.59;;;6.56;93.72
9822;BME280;4950;46.042;14.472;2024-01-07T12:59:32;96603.78;;;6.54;94.12
9822;BME280;4950;46.042;14.472;2024-01-07T13:01:58;96604.16;;;6.51;93.33
9822;BME280;4950;46.042;14.472;2024-01-07T13:04:25;96604.34;;;6.49;94.35
9822;BME280;4950;46.042;14.472;2024-01-07T13:06:52;96607.34;;;6.53;94.12
9822;BME280;4950;46.042;14.472;2024-01-07T13:09:18;96608.31;;;6.52;94.20
9822;BME280;4950;46.042;14.472;2024-01-07T13:11:46;96611.72;;;6.52;94.17
9822;BME280;4950;46.042;14.472;2024-01-07T13:14:13;96606.91;;;6.49;94.59
9822;BME280;4950;46.042;14.472;2024-01-07T13:16:40;96611.91;;;6.36;95.00
9822;BME280;4950;46.042;14.472;2024-01-07T13:19:07;96614.38;;;6.44;96.00
9822;BME280;4950;46.042;14.472;2024-01-07T13:21:36;96617.41;;;6.48;95.98
9822;BME280;4950;46.042;14.472;2024-01-07T13:24:03;96619.81;;;6.49;95.45